
Distance (Route):
Temperature : -41.6°C
Humidity : 30.6%
Pressure : 0hPa| Receiver | Date | Latitude | Longitude | Direction | Speed | Altitude | Climb | Temperature | Humidity | Pressure | Voltage | Killtimer | Uptime | BKT | XDATA |
|---|---|---|---|---|---|---|---|---|---|---|---|---|---|---|---|
| LZ4TU-5 | 2026-09-03 12:52:30 | 44.48719 | 20.89868 | 148° | 75km/h | 9688m | -20.9m/s | -41.6°C | 30.6% | 0hPa | 5.4V | 00:00:00 | 00:00:00 | 00:00:00 | |
| LZ4TU-5 | 2026-09-03 12:52:25 | 44.48806 | 20.89795 | 150° | 84km/h | 9790m | -20.3m/s | -42.1°C | 0% | 0hPa | 5.4V | 00:00:00 | 00:00:00 | 00:00:00 | |
| OE3JTB-15 | 2026-09-03 12:40:00 | 44.52125 | 20.84340 | 142° | 13km/h | 30432m | 7.3m/s | -41.8°C | 0% | 0hPa | 5.4V | 00:00:00 | 00:00:00 | 00:00:00 | |
| OE3JTB-15 | 2026-09-03 12:39:31 | 44.52109 | 20.84241 | 44° | 18km/h | 30222m | 7.2m/s | -42.1°C | 0% | 0hPa | 5.5V | 00:00:00 | 00:00:00 | 00:00:00 | |
| LZ4TU-5 | 2026-09-03 12:37:10 | 44.52046 | 20.84336 | 224° | 9km/h | 29251m | 6.8m/s | -42.1°C | 2.5% | 0hPa | 5.5V | 00:00:00 | 00:00:00 | 00:00:00 | |
| LZ4TU-5 | 2026-09-03 12:37:05 | 44.52043 | 20.84354 | 322° | 18km/h | 29217m | 7.1m/s | -42.0°C | 2.5% | 0hPa | 5.5V | 00:00:00 | 00:00:00 | 00:00:00 | |
| OE3JTB-15 | 2026-09-03 12:32:27 | 44.52432 | 20.83748 | 104° | 20km/h | 27269m | 6.9m/s | -44.4°C | 0% | 0hPa | 5.5V | 00:00:00 | 00:00:00 | 00:00:00 | |
| OE3JTB-15 | 2026-09-03 12:31:54 | 44.52448 | 20.83506 | 130° | 27km/h | 27046m | 8.5m/s | -46.1°C | 0% | 0hPa | 5.5V | 00:00:00 | 00:00:00 | 00:00:00 | |
| OE3JTB-15 | 2026-09-03 12:31:20 | 44.52466 | 20.83149 | 92° | 31km/h | 26819m | 6.0m/s | -45.8°C | 0% | 0hPa | 5.5V | 00:00:00 | 00:00:00 | 00:00:00 | |
| OE3JTB-15 | 2026-09-03 12:30:18 | 44.52242 | 20.82525 | 45° | 18km/h | 26400m | 7.1m/s | -46.0°C | 0% | 0hPa | 5.5V | 00:00:00 | 00:00:00 | 00:00:00 | |
| OE3JTB-15 | 2026-09-03 12:21:46 | 44.51568 | 20.82445 | 332° | 16km/h | 23072m | 7.6m/s | -53.0°C | 0% | 0hPa | 5.5V | 00:00:00 | 00:00:00 | 00:00:00 | |
| OE3JTB-15 | 2026-09-03 12:21:06 | 44.51519 | 20.82545 | 273° | 13km/h | 22829m | 5.4m/s | -52.6°C | 0% | 0hPa | 5.5V | 00:00:00 | 00:00:00 | 00:00:00 | |
| GYPAP8-17 | 2026-09-03 12:20:59 | 44.51519 | 20.82543 | 60° | 16km/h | 22805m | 7.9m/s | -53.2°C | 1.5% | 0hPa | 5.5V | 00:00:00 | 00:00:00 | 00:00:00 | |
| OE3JTB-15 | 2026-09-03 12:20:35 | 44.51503 | 20.82425 | 124° | 9km/h | 22656m | 5.5m/s | -52.6°C | 0% | 0hPa | 5.5V | 00:00:00 | 00:00:00 | 00:00:00 | |
| OE3JTB-15 | 2026-09-03 12:20:05 | 44.51487 | 20.82397 | 5° | 18km/h | 22468m | 6.2m/s | -52.5°C | 0% | 0hPa | 5.5V | 00:00:00 | 00:00:00 | 00:00:00 | |
| OE3JTB-15 | 2026-09-03 12:19:37 | 44.51378 | 20.82459 | 305° | 29km/h | 22285m | 7.2m/s | -52.0°C | 0% | 0hPa | 5.6V | 00:00:00 | 00:00:00 | 00:00:00 | |
| OE3JTB-15 | 2026-09-03 12:19:07 | 44.51239 | 20.82663 | 292° | 20km/h | 22107m | 6.7m/s | -52.1°C | 0% | 0hPa | 5.6V | 00:00:00 | 00:00:00 | 00:00:00 | |
| OE3JTB-15 | 2026-09-03 12:18:03 | 44.51397 | 20.82949 | 163° | 16km/h | 21683m | 7.1m/s | -52.4°C | 0% | 0hPa | 5.6V | 00:00:00 | 00:00:00 | 00:00:00 | |
| OE3JTB-15 | 2026-09-03 12:17:34 | 44.51477 | 20.82903 | 176° | 15km/h | 21508m | 6.1m/s | -51.7°C | 0% | 0hPa | 5.6V | 00:00:00 | 00:00:00 | 00:00:00 | |
| OE3JTB-15 | 2026-09-03 12:16:09 | 44.51493 | 20.82711 | 189° | 15km/h | 20993m | 5.5m/s | -52.8°C | 0% | 0hPa | 5.6V | 00:00:00 | 00:00:00 | 00:00:00 | |
| OE3JTB-15 | 2026-09-03 12:15:40 | 44.51523 | 20.82637 | 78° | 24km/h | 20823m | 6.2m/s | -53.5°C | 0% | 0hPa | 5.6V | 00:00:00 | 00:00:00 | 00:00:00 | |
| OE3JTB-15 | 2026-09-03 12:15:11 | 44.51553 | 20.82431 | 147° | 20km/h | 20642m | 5.4m/s | -53.6°C | 0% | 0hPa | 5.6V | 00:00:00 | 00:00:00 | 00:00:00 | |
| OE3JTB-15 | 2026-09-03 12:14:41 | 44.51598 | 20.82259 | 123° | 27km/h | 20454m | 6.8m/s | -54.0°C | 0% | 0hPa | 5.6V | 00:00:00 | 00:00:00 | 00:00:00 | |
| LZ4TU-5 | 2026-09-03 12:11:30 | 44.51554 | 20.81232 | 74° | 20km/h | 19314m | 6.1m/s | -54.2°C | 1.6% | 0hPa | 5.6V | 00:00:00 | 00:00:00 | 00:00:00 | |
| LZ4TU-5 | 2026-09-03 12:11:25 | 44.51550 | 20.81193 | 95° | 24km/h | 19285m | 7.2m/s | -54.1°C | 1.5% | 0hPa | 5.6V | 00:00:00 | 00:00:00 | 00:00:00 | |
| OE3JTB-15 | 2026-09-03 12:10:20 | 44.51601 | 20.80856 | 107° | 37km/h | 18904m | 5.7m/s | -54.1°C | 0% | 0hPa | 5.6V | 00:00:00 | 00:00:00 | 00:00:00 | |
| LZ4TU-5 | 2026-09-03 12:07:53 | 44.51799 | 20.79893 | 128° | 40km/h | 18080m | 5.6m/s | -54.9°C | 1.6% | 0hPa | 0V | 00:00:00 | 00:00:00 | 00:00:00 | |
| LZ4TU-5 | 2026-09-03 12:07:48 | 44.51814 | 20.79828 | 103° | 38km/h | 18053m | 5.6m/s | -55.1°C | 1.7% | 0hPa | 0V | 00:00:00 | 00:00:00 | 00:00:00 | |
| LZ4TU-5 | 2026-09-03 11:54:33 | 44.54291 | 20.67343 | 111° | 78km/h | 13643m | 5.0m/s | -54.0°C | 4.8% | 0hPa | 0V | 00:00:00 | 00:00:00 | 00:00:00 | |
| LZ4TU-5 | 2026-09-03 11:54:28 | 44.54332 | 20.67234 | 123° | 58km/h | 13612m | 7.0m/s | -53.8°C | 4.7% | 0hPa | 0V | 00:00:00 | 00:00:00 | 00:00:00 | |
| LZ4TU-5 | 2026-09-03 11:52:03 | 44.55548 | 20.64547 | 141° | 73km/h | 12731m | 6.6m/s | -52.4°C | 11.3% | 0hPa | 0V | 00:00:00 | 00:00:00 | 00:00:00 | |
| LZ4TU-5 | 2026-09-03 11:51:59 | 44.55600 | 20.64484 | 146° | 66km/h | 12701m | 7.6m/s | -52.3°C | 11.5% | 0hPa | 0V | 00:00:00 | 00:00:00 | 00:00:00 |